createdAt,value
2024-02-17T00:01:57.904Z,4.93
2024-02-17T00:07:03.641Z,4.17
2024-02-17T00:12:10.381Z,3.37
2024-02-17T00:17:16.334Z,3.50
2024-02-17T00:22:22.003Z,3.17
2024-02-17T00:27:27.964Z,2.87
2024-02-17T00:32:34.011Z,3.37
2024-02-17T00:37:39.939Z,3.30
2024-02-17T00:42:45.713Z,2.40
2024-02-17T00:47:51.513Z,2.17
2024-02-17T00:52:57.867Z,2.17
2024-02-17T00:58:03.648Z,1.70
2024-02-17T01:03:11.385Z,3.17
2024-02-17T01:08:17.230Z,1.60
2024-02-17T01:13:23.151Z,1.60
2024-02-17T01:18:29.154Z,1.30
2024-02-17T01:23:35.123Z,1.63
2024-02-17T01:28:41.034Z,1.23
2024-02-17T01:33:48.443Z,1.77
2024-02-17T01:38:54.199Z,1.50
2024-02-17T01:43:59.948Z,1.30
2024-02-17T01:49:06.732Z,1.20
2024-02-17T01:54:13.903Z,1.40
2024-02-17T01:59:20.033Z,1.53
2024-02-17T02:04:26.582Z,1.53
2024-02-17T02:09:32.539Z,1.30
2024-02-17T02:14:38.458Z,1.30
2024-02-17T02:19:45.415Z,0.87
2024-02-17T02:24:53.114Z,0.70
2024-02-17T02:30:00.573Z,1.33
2024-02-17T02:35:07.214Z,1.10
2024-02-17T02:40:13.619Z,1.20
2024-02-17T02:45:19.691Z,1.30
2024-02-17T02:50:25.925Z,1.60
2024-02-17T02:55:31.889Z,2.27
2024-02-17T03:00:38.076Z,1.47
2024-02-17T03:05:44.065Z,1.60
2024-02-17T03:10:50.002Z,2.30
2024-02-17T03:15:56.040Z,1.20
2024-02-17T03:21:02.061Z,1.17
2024-02-17T03:26:08.358Z,1.47
2024-02-17T03:31:14.266Z,2.53
2024-02-17T03:36:21.196Z,2.03
2024-02-17T03:41:27.837Z,1.40
2024-02-17T03:46:33.830Z,1.40
2024-02-17T03:51:39.614Z,1.67
2024-02-17T03:56:45.744Z,1.50
2024-02-17T04:01:55.993Z,2.30
2024-02-17T04:07:01.872Z,2.50
2024-02-17T04:12:08.086Z,3.73
2024-02-17T04:17:13.914Z,3.17
2024-02-17T04:22:19.822Z,3.03
2024-02-17T04:27:25.793Z,3.90
2024-02-17T04:32:31.846Z,3.00
2024-02-17T04:37:37.708Z,3.57
2024-02-17T04:42:43.423Z,3.37
2024-02-17T04:47:49.187Z,3.67
2024-02-17T04:52:54.925Z,2.67
2024-02-17T04:58:00.798Z,3.50
2024-02-17T05:03:08.268Z,3.37
2024-02-17T05:08:14.902Z,3.80
2024-02-17T05:13:20.688Z,2.53
2024-02-17T05:18:26.620Z,2.83
2024-02-17T05:23:32.306Z,2.23
2024-02-17T05:28:37.955Z,2.50
2024-02-17T05:33:43.846Z,3.13
2024-02-17T05:38:49.617Z,3.40
2024-02-17T05:43:55.799Z,2.20
2024-02-17T05:49:01.703Z,4.03
2024-02-17T05:54:08.474Z,2.93
2024-02-17T05:59:17.394Z,2.90
2024-02-17T06:04:23.106Z,3.33
2024-02-17T06:09:28.991Z,3.03
2024-02-17T06:14:34.813Z,2.93
2024-02-17T06:19:58.333Z,3.43
2024-02-17T06:25:04.164Z,3.43
2024-02-17T06:30:12.495Z,3.00
2024-02-17T06:35:18.588Z,3.63
2024-02-17T06:40:24.309Z,2.57
2024-02-17T06:45:30.071Z,2.60
2024-02-17T06:50:35.795Z,3.50
2024-02-17T06:55:41.621Z,2.43
2024-02-17T07:00:47.390Z,2.30
2024-02-17T07:05:53.340Z,2.60
2024-02-17T07:10:59.321Z,2.43
2024-02-17T07:16:05.585Z,2.13
2024-02-17T07:21:11.437Z,2.57
2024-02-17T07:26:17.302Z,2.07
2024-02-17T07:31:22.911Z,1.23
2024-02-17T07:36:28.709Z,1.20
2024-02-17T07:41:34.624Z,1.57
2024-02-17T07:46:40.684Z,1.10
2024-02-17T07:51:47.007Z,2.63
2024-02-17T07:56:52.816Z,2.10
2024-02-17T08:01:58.519Z,1.90
2024-02-17T08:07:04.303Z,2.10
2024-02-17T08:12:12.116Z,2.30
2024-02-17T08:17:17.862Z,2.63
2024-02-17T08:22:23.867Z,1.67
2024-02-17T08:27:29.943Z,1.13
2024-02-17T08:32:36.161Z,1.30
2024-02-17T08:37:42.071Z,1.00
2024-02-17T08:42:48.029Z,0.90
2024-02-17T08:47:53.889Z,2.20
2024-02-17T08:52:59.791Z,0.70
2024-02-17T08:58:05.555Z,1.90
2024-02-17T09:03:12.823Z,0.40
2024-02-17T09:08:18.442Z,2.77
2024-02-17T09:13:24.205Z,0.93
2024-02-17T09:18:30.314Z,0.27
2024-02-17T09:23:36.382Z,0.30
2024-02-17T09:28:42.065Z,1.07
2024-02-17T09:33:48.068Z,1.20
2024-02-17T09:38:54.025Z,1.40
2024-02-17T09:43:59.842Z,3.53
2024-02-17T09:49:09.929Z,1.60
2024-02-17T09:54:17.207Z,4.83
2024-02-17T09:59:23.556Z,1.20
2024-02-17T10:04:29.429Z,3.67
2024-02-17T10:09:37.139Z,1.53
2024-02-17T10:14:43.060Z,1.20
2024-02-17T10:19:49.239Z,6.10
2024-02-17T10:24:58.132Z,4.07
2024-02-17T10:30:12.250Z,2.97
2024-02-17T10:35:18.454Z,3.37
2024-02-17T10:40:26.743Z,2.47
2024-02-17T10:45:32.674Z,5.30
2024-02-17T10:50:46.433Z,3.77
2024-02-17T10:55:56.030Z,4.50
2024-02-17T11:01:02.647Z,3.80
2024-02-17T11:06:11.720Z,1.77
2024-02-17T11:11:30.691Z,1.97
2024-02-17T11:16:38.064Z,4.40
2024-02-17T11:21:44.681Z,2.60
2024-02-17T11:26:52.475Z,3.17
2024-02-17T11:32:07.573Z,4.83
2024-02-17T11:37:15.621Z,4.30
2024-02-17T11:42:24.542Z,4.10
2024-02-17T11:47:31.814Z,3.23
2024-02-17T11:52:39.230Z,2.13
2024-02-17T11:57:47.035Z,3.97
2024-02-17T12:02:53.970Z,5.10
2024-02-17T12:07:59.809Z,4.37
2024-02-17T12:13:07.634Z,3.37
2024-02-17T12:18:15.415Z,4.50
2024-02-17T12:23:22.042Z,5.33
2024-02-17T12:28:28.020Z,3.97
2024-02-17T12:33:34.111Z,5.80
2024-02-17T12:38:40.092Z,3.97
2024-02-17T12:48:58.091Z,4.30
2024-02-17T12:54:05.536Z,3.53
2024-02-17T12:59:11.654Z,7.23
2024-02-17T13:04:17.522Z,4.47
2024-02-17T13:09:23.582Z,6.17
2024-02-17T13:14:29.349Z,4.67
2024-02-17T13:19:35.320Z,2.60
2024-02-17T13:24:42.784Z,6.37
2024-02-17T13:29:48.504Z,5.03
2024-02-17T13:34:54.746Z,7.07
2024-02-17T13:40:00.832Z,4.10
2024-02-17T13:45:09.144Z,3.47
2024-02-17T13:50:17.952Z,5.90
2024-02-17T13:55:24.363Z,3.07
2024-02-17T14:00:30.341Z,3.70
2024-02-17T14:05:36.540Z,3.70
2024-02-17T14:10:42.486Z,1.87
2024-02-17T14:15:49.199Z,2.47
2024-02-17T14:20:57.006Z,2.97
2024-02-17T14:26:02.998Z,3.40
2024-02-17T14:31:08.885Z,4.23
2024-02-17T14:36:14.628Z,3.13
2024-02-17T14:41:20.346Z,3.00
2024-02-17T14:46:26.333Z,2.53
2024-02-17T14:51:33.430Z,5.03
2024-02-17T14:56:39.326Z,2.50
2024-02-17T15:01:45.420Z,5.33
2024-02-17T15:06:51.395Z,5.53
2024-02-17T15:11:59.875Z,4.27
2024-02-17T15:17:06.696Z,4.47
2024-02-17T15:22:12.592Z,4.83
2024-02-17T15:27:19.203Z,3.93
2024-02-17T15:32:26.585Z,4.20
2024-02-17T15:37:32.334Z,4.83
2024-02-17T15:42:38.600Z,5.43
2024-02-17T15:47:46.033Z,4.30
2024-02-17T15:52:52.270Z,2.20
2024-02-17T15:57:58.134Z,1.63
2024-02-17T16:03:04.044Z,1.10
2024-02-17T16:08:11.448Z,4.90
2024-02-17T16:13:19.116Z,3.83
2024-02-17T16:18:27.528Z,4.60
2024-02-17T16:23:33.313Z,2.93
2024-02-17T16:28:39.533Z,5.33
2024-02-17T16:33:46.992Z,5.70
2024-02-17T16:39:13.139Z,7.33
2024-02-17T16:44:23.881Z,1.60
2024-02-17T16:49:29.921Z,4.47
2024-02-17T16:54:36.610Z,4.13
2024-02-17T16:59:42.528Z,2.70
2024-02-17T17:04:49.469Z,3.23
2024-02-17T17:09:56.768Z,4.60
2024-02-17T17:15:04.338Z,5.07
2024-02-17T17:20:11.206Z,2.77
2024-02-17T17:25:18.317Z,1.63
2024-02-17T17:30:25.797Z,1.60
2024-02-17T17:35:31.782Z,2.10
2024-02-17T17:40:37.490Z,2.10
2024-02-17T17:45:44.136Z,2.23
2024-02-17T17:50:50.178Z,3.50
2024-02-17T17:55:58.481Z,3.30
2024-02-17T18:01:04.504Z,2.57
2024-02-17T18:06:11.193Z,3.93
2024-02-17T18:11:16.956Z,5.63
2024-02-17T18:16:22.777Z,3.30
2024-02-17T18:21:28.518Z,3.17
2024-02-17T18:26:35.741Z,4.00
2024-02-17T18:31:41.615Z,4.30
2024-02-17T18:36:47.843Z,3.77
2024-02-17T18:41:53.578Z,3.97
2024-02-17T18:46:59.388Z,3.07
2024-02-17T18:52:05.981Z,2.67
2024-02-17T18:57:11.912Z,2.00
2024-02-17T19:02:17.897Z,2.37
2024-02-17T19:07:23.742Z,3.27
2024-02-17T19:12:29.654Z,2.37
2024-02-17T19:17:35.422Z,3.10
2024-02-17T19:22:41.792Z,2.37
2024-02-17T19:27:47.982Z,3.57
2024-02-17T19:32:53.745Z,2.50
2024-02-17T19:38:00.725Z,3.20
2024-02-17T19:43:08.200Z,2.97
2024-02-17T19:48:14.187Z,3.90
2024-02-17T19:53:19.968Z,4.10
2024-02-17T19:58:25.640Z,3.67
2024-02-17T20:03:31.724Z,4.80
2024-02-17T20:08:37.576Z,5.40
2024-02-17T20:13:43.355Z,5.43
2024-02-17T20:18:51.332Z,3.67
2024-02-17T20:23:57.380Z,4.27
2024-02-17T20:29:03.231Z,4.73
2024-02-17T20:34:09.865Z,2.80
2024-02-17T20:39:16.014Z,4.37
2024-02-17T20:44:22.414Z,6.27
2024-02-17T20:49:28.321Z,3.90
2024-02-17T20:54:34.770Z,3.13
2024-02-17T20:59:42.981Z,4.50
2024-02-17T21:04:49.007Z,3.83
2024-02-17T21:09:55.340Z,2.77
2024-02-17T21:15:01.750Z,4.27
2024-02-17T21:20:08.658Z,4.83
2024-02-17T21:25:15.659Z,7.27
2024-02-17T21:30:22.019Z,8.53
2024-02-17T21:35:27.647Z,8.63
2024-02-17T21:40:34.138Z,7.13
2024-02-17T21:45:39.850Z,10.13
2024-02-17T21:50:45.581Z,6.40
2024-02-17T21:55:51.803Z,8.23
2024-02-17T22:00:58.018Z,7.87
2024-02-17T22:06:04.936Z,7.20
2024-02-17T22:11:11.162Z,7.30
2024-02-17T22:16:17.041Z,7.57
2024-02-17T22:21:27.176Z,6.97
2024-02-17T22:26:32.940Z,6.27
2024-02-17T22:31:39.024Z,5.90
2024-02-17T22:36:44.887Z,7.13
2024-02-17T22:41:53.818Z,7.60
2024-02-17T22:47:00.555Z,5.93
2024-02-17T22:52:06.930Z,5.47
2024-02-17T22:57:14.517Z,5.37
2024-02-17T23:02:20.375Z,3.87
2024-02-17T23:07:26.189Z,3.70
2024-02-17T23:12:32.070Z,4.20
2024-02-17T23:17:39.475Z,4.57
2024-02-17T23:22:45.463Z,4.13
2024-02-17T23:27:51.140Z,3.47
2024-02-17T23:32:57.203Z,4.50
2024-02-17T23:38:03.067Z,4.50
2024-02-17T23:43:09.096Z,4.90
2024-02-17T23:48:15.631Z,3.77
2024-02-17T23:53:21.453Z,2.63
2024-02-17T23:58:27.460Z,2.80
